EGNX/EMA METAR and TAF weather

Enter ICAO airport designator
Station Type Date Time Source
EGNX METAR 2019/08/24 20:50 UTC NOAA

EGNX 242050Z 12004KT CAVOK 22/11 Q1017


Station Type Date Time Source
EGNX Decoded METAR 2019/08/24 20:50 UTC NOAA

Station name not available
Aug 24, 2019 - 04:50 PM EDT / 2019.08.24 2050 UTC
Wind: from the ESE (120 degrees) at 5 MPH (4 KT):0
Visibility: greater than 7 mile(s):0
Temperature: 71 F (22 C)
Dew Point: 51 F (11 C)
Relative Humidity: 49%
Pressure (altimeter): 30.03 in. Hg (1017 hPa)
ob: EGNX 242050Z 12004KT CAVOK 22/11 Q1017
cycle: 21

Station Type Date Time Source
EGNX TAF 2019/08/24 18:09 UTC NOAA

TAF EGNX 241656Z 2418/2518 15008KT 9999 FEW040 PROB30
TEMPO 2504/2508 7000

Example: see airport list